createdAt,value
2018-06-21T00:00:11.474Z,6.17
2018-06-21T00:02:39.751Z,6.30
2018-06-21T00:05:15.112Z,7.05
2018-06-21T00:07:43.340Z,7.00
2018-06-21T00:10:11.528Z,7.47
2018-06-21T00:12:40.684Z,7.27
2018-06-21T00:15:08.899Z,6.77
2018-06-21T00:17:37.132Z,7.22
2018-06-21T00:20:10.197Z,8.08
2018-06-21T00:22:38.426Z,7.43
2018-06-21T00:25:06.640Z,7.90
2018-06-21T00:27:35.519Z,8.83
2018-06-21T00:30:05.488Z,9.90
2018-06-21T00:32:36.722Z,9.07
2018-06-21T00:35:08.559Z,10.33
2018-06-21T00:37:37.078Z,8.90
2018-06-21T00:40:05.320Z,9.17
2018-06-21T00:42:33.572Z,10.25
2018-06-21T00:45:01.905Z,10.90
2018-06-21T00:47:30.189Z,9.33
2018-06-21T00:50:02.367Z,9.90
2018-06-21T00:52:31.541Z,8.90
2018-06-21T00:54:59.750Z,7.87
2018-06-21T00:57:27.957Z,8.65
2018-06-21T00:59:56.189Z,8.70
2018-06-21T01:02:24.398Z,8.25
2018-06-21T01:04:57.033Z,8.10
2018-06-21T01:07:25.219Z,9.10
2018-06-21T01:09:53.471Z,9.10
2018-06-21T01:12:22.955Z,8.30
2018-06-21T01:14:52.740Z,10.20
2018-06-21T01:17:20.932Z,9.47
2018-06-21T01:19:49.160Z,8.67
2018-06-21T01:22:17.347Z,9.23
2018-06-21T01:24:45.325Z,8.83
2018-06-21T01:27:13.580Z,9.70
2018-06-21T01:29:42.483Z,9.93
2018-06-21T01:32:10.747Z,10.20
2018-06-21T01:34:38.972Z,9.17
2018-06-21T01:37:07.196Z,9.40
2018-06-21T01:39:35.415Z,10.00
2018-06-21T01:42:03.593Z,8.53
2018-06-21T01:44:31.802Z,7.60
2018-06-21T01:47:00.022Z,9.20
2018-06-21T01:49:28.219Z,10.13
2018-06-21T01:51:56.460Z,9.07
2018-06-21T01:54:24.715Z,8.63
2018-06-21T01:56:52.940Z,9.30
2018-06-21T01:59:21.248Z,9.23
2018-06-21T02:01:49.452Z,8.50
2018-06-21T02:04:17.740Z,9.40
2018-06-21T02:06:45.911Z,9.40
2018-06-21T02:09:14.187Z,8.30
2018-06-21T02:11:42.364Z,9.40
2018-06-21T02:14:10.627Z,10.17
2018-06-21T02:16:38.803Z,9.80
2018-06-21T02:19:07.051Z,11.05
2018-06-21T02:21:38.552Z,10.57
2018-06-21T02:24:11.015Z,9.20
2018-06-21T02:26:39.246Z,10.23
2018-06-21T02:29:07.468Z,10.60
2018-06-21T02:31:35.715Z,10.50
2018-06-21T02:34:03.956Z,9.73
2018-06-21T02:36:35.984Z,9.18
2018-06-21T02:39:06.089Z,9.87
2018-06-21T02:41:34.289Z,11.30
2018-06-21T02:44:02.556Z,9.83
2018-06-21T02:46:31.220Z,10.48
2018-06-21T02:48:59.411Z,10.50
2018-06-21T02:51:27.598Z,10.20
2018-06-21T02:53:58.701Z,9.87
2018-06-21T02:56:27.951Z,10.90
2018-06-21T02:58:56.192Z,10.50
2018-06-21T03:01:24.654Z,10.55
2018-06-21T03:03:53.053Z,10.97
2018-06-21T03:06:21.168Z,11.67
2018-06-21T03:08:52.700Z,12.20
2018-06-21T03:11:21.376Z,11.35
2018-06-21T03:13:49.591Z,12.50
2018-06-21T03:16:17.804Z,12.15
2018-06-21T03:18:46.488Z,12.50
2018-06-21T03:21:14.697Z,12.70
2018-06-21T03:23:46.880Z,12.30
2018-06-21T03:26:15.097Z,13.13
2018-06-21T03:28:43.366Z,14.77
2018-06-21T03:31:11.855Z,13.22
2018-06-21T03:33:40.584Z,11.97
2018-06-21T03:36:08.832Z,13.72
2018-06-21T03:38:37.023Z,11.63
2018-06-21T03:41:06.177Z,13.70
2018-06-21T03:43:34.451Z,13.97
2018-06-21T03:46:02.683Z,12.70
2018-06-21T03:48:31.120Z,13.70
2018-06-21T03:50:59.144Z,13.98
2018-06-21T03:53:31.885Z,12.37
2018-06-21T03:56:00.369Z,11.87
2018-06-21T03:58:28.572Z,11.90
2018-06-21T04:00:56.768Z,11.70
2018-06-21T04:03:25.907Z,14.03
2018-06-21T04:05:54.103Z,12.77
2018-06-21T04:08:22.353Z,12.17
2018-06-21T04:10:51.088Z,12.58
2018-06-21T04:13:20.192Z,11.30
2018-06-21T04:15:48.465Z,10.85
2018-06-21T04:18:20.712Z,10.10
2018-06-21T04:20:49.235Z,10.60
2018-06-21T04:23:23.827Z,10.43
2018-06-21T04:25:52.523Z,11.17
2018-06-21T04:28:20.739Z,11.20
2018-06-21T04:30:48.965Z,11.87
2018-06-21T04:33:17.191Z,11.50
2018-06-21T04:35:45.411Z,10.67
2018-06-21T04:38:13.703Z,10.40
2018-06-21T04:40:42.240Z,11.80
2018-06-21T04:43:10.521Z,10.33
2018-06-21T04:45:38.700Z,11.30
2018-06-21T04:48:06.916Z,10.00
2018-06-21T04:50:35.140Z,11.08
2018-06-21T04:53:05.035Z,10.27
2018-06-21T04:55:33.523Z,11.05
2018-06-21T04:58:02.032Z,10.13
2018-06-21T05:00:30.317Z,10.60
2018-06-21T05:02:58.551Z,9.27
2018-06-21T05:05:27.072Z,8.90
2018-06-21T05:07:55.309Z,8.13
2018-06-21T05:10:26.410Z,9.43
2018-06-21T05:12:54.692Z,9.07
2018-06-21T05:15:22.909Z,7.57
2018-06-21T05:17:51.160Z,8.60
2018-06-21T05:20:19.380Z,9.20
2018-06-21T05:22:51.440Z,8.05
2018-06-21T05:25:19.664Z,9.33
2018-06-21T05:27:48.038Z,8.10
2018-06-21T05:30:16.684Z,8.33
2018-06-21T05:32:45.015Z,8.90
2018-06-21T05:35:13.344Z,8.80
2018-06-21T05:37:41.559Z,8.23
2018-06-21T05:40:40.921Z,8.17
2018-06-21T05:43:09.441Z,9.05
2018-06-21T05:45:37.781Z,7.37
2018-06-21T05:48:06.199Z,8.98
2018-06-21T05:50:35.347Z,8.60
2018-06-21T05:53:03.671Z,7.63
2018-06-21T05:55:36.904Z,7.00
2018-06-21T05:58:05.109Z,8.57
2018-06-21T06:00:33.328Z,8.00
2018-06-21T06:03:01.541Z,7.13
2018-06-21T06:05:29.816Z,6.50
2018-06-21T06:07:58.051Z,7.42
2018-06-21T06:10:26.396Z,6.42
2018-06-21T06:12:54.635Z,6.60
2018-06-21T06:15:22.884Z,6.30
2018-06-21T06:17:51.179Z,6.90
2018-06-21T06:20:19.574Z,5.97
2018-06-21T06:22:47.802Z,6.07
2018-06-21T06:25:16.027Z,7.47
2018-06-21T06:27:44.312Z,6.50
2018-06-21T06:30:12.576Z,5.30
2018-06-21T06:32:40.869Z,5.90
2018-06-21T06:35:09.139Z,6.60
2018-06-21T06:37:37.484Z,5.37
2018-06-21T06:40:05.736Z,5.40
2018-06-21T06:42:33.986Z,5.57
2018-06-21T06:45:02.257Z,6.13
2018-06-21T06:47:30.501Z,5.65
2018-06-21T06:49:58.727Z,5.60
2018-06-21T06:52:26.912Z,5.77
2018-06-21T06:54:55.124Z,5.17
2018-06-21T06:57:24.244Z,4.87
2018-06-21T06:59:53.337Z,5.80
2018-06-21T07:02:21.492Z,4.57
2018-06-21T07:04:49.725Z,5.10
2018-06-21T07:07:17.980Z,5.03
2018-06-21T07:09:46.176Z,5.23
2018-06-21T07:12:14.349Z,4.83
2018-06-21T07:14:42.585Z,5.50
2018-06-21T07:17:10.749Z,4.27
2018-06-21T07:19:38.935Z,4.73
2018-06-21T07:22:08.657Z,5.00
2018-06-21T07:24:36.856Z,4.45
2018-06-21T07:27:06.008Z,4.37
2018-06-21T07:29:34.151Z,4.20
2018-06-21T07:32:02.369Z,3.65
2018-06-21T07:34:30.577Z,4.20
2018-06-21T07:36:59.576Z,3.67
2018-06-21T07:39:28.032Z,4.62
2018-06-21T07:41:56.531Z,4.47
2018-06-21T07:44:24.767Z,4.10
2018-06-21T07:46:53.488Z,4.17
2018-06-21T07:49:21.667Z,3.93
2018-06-21T07:51:50.454Z,3.87
2018-06-21T07:54:18.652Z,3.60
2018-06-21T07:56:50.413Z,3.00
2018-06-21T07:59:18.587Z,3.97
2018-06-21T08:01:47.048Z,3.93
2018-06-21T08:04:15.267Z,2.90
2018-06-21T08:06:43.517Z,4.30
2018-06-21T08:09:13.069Z,3.47
2018-06-21T08:11:41.286Z,3.20
2018-06-21T08:14:09.475Z,3.20
2018-06-21T08:16:39.687Z,4.10
2018-06-21T08:19:07.950Z,3.90
2018-06-21T08:21:36.188Z,4.30
2018-06-21T08:24:04.451Z,4.00
2018-06-21T08:26:33.083Z,3.80
2018-06-21T08:29:01.359Z,3.60
2018-06-21T08:31:29.604Z,4.13
2018-06-21T08:33:57.829Z,3.45
2018-06-21T08:36:26.092Z,3.13
2018-06-21T08:38:54.340Z,3.17
2018-06-21T08:41:22.696Z,3.10
2018-06-21T08:43:55.584Z,3.08
2018-06-21T08:46:23.864Z,3.00
2018-06-21T08:48:53.060Z,2.65
2018-06-21T08:51:21.336Z,3.50
2018-06-21T08:53:49.577Z,3.13
2018-06-21T08:56:17.808Z,3.10
2018-06-21T09:08:26.155Z,3.27
2018-06-21T09:10:55.815Z,3.50
2018-06-21T09:13:36.027Z,3.12
2018-06-21T09:16:05.132Z,2.80
2018-06-21T09:18:34.526Z,2.90
2018-06-21T09:21:04.590Z,3.37
2018-06-21T09:23:32.824Z,2.90
2018-06-21T09:26:01.317Z,2.57
2018-06-21T09:28:41.558Z,3.20
2018-06-21T09:31:09.730Z,3.00
2018-06-21T09:33:38.029Z,4.37
2018-06-21T09:36:06.401Z,3.00
2018-06-21T09:38:40.133Z,2.70
2018-06-21T09:41:13.937Z,3.22
2018-06-21T09:44:03.825Z,2.10
2018-06-21T09:46:33.877Z,2.63
2018-06-21T09:48:53.580Z,2.80
2018-06-21T09:51:22.116Z,2.23
2018-06-21T09:53:50.350Z,3.43
2018-06-21T09:56:18.665Z,2.17
2018-06-21T09:58:51.552Z,2.62
2018-06-21T10:01:19.731Z,2.70
2018-06-21T10:03:47.910Z,2.50
2018-06-21T10:06:16.103Z,2.63
2018-06-21T10:08:44.959Z,2.50
2018-06-21T10:11:13.195Z,2.20
2018-06-21T10:13:41.407Z,3.10
2018-06-21T10:16:10.033Z,3.00
2018-06-21T10:18:38.257Z,3.03
2018-06-21T10:21:06.584Z,3.17
2018-06-21T10:23:34.962Z,3.10
2018-06-21T10:26:03.209Z,3.03
2018-06-21T10:28:32.158Z,2.40
2018-06-21T10:31:04.616Z,2.37
2018-06-21T10:33:32.934Z,2.90
2018-06-21T10:36:01.737Z,3.00
2018-06-21T10:38:30.064Z,3.27
2018-06-21T10:40:59.224Z,2.80
2018-06-21T10:43:27.976Z,2.33
2018-06-21T10:46:00.470Z,2.60
2018-06-21T10:48:28.674Z,2.40
2018-06-21T10:50:56.685Z,2.50
2018-06-21T10:53:25.255Z,2.90
2018-06-21T10:55:53.544Z,2.33
2018-06-21T10:58:21.756Z,2.83
2018-06-21T11:00:49.980Z,2.70
2018-06-21T11:03:18.254Z,3.03
2018-06-21T11:05:46.848Z,2.63
2018-06-21T11:08:15.119Z,3.60
2018-06-21T11:10:43.340Z,4.07
2018-06-21T11:13:11.547Z,3.50
2018-06-21T11:15:43.487Z,3.60
2018-06-21T11:18:11.816Z,4.40
2018-06-21T11:20:40.061Z,3.60
2018-06-21T11:23:08.098Z,3.53
2018-06-21T11:28:10.802Z,3.77
2018-06-21T11:30:42.232Z,3.30
2018-06-21T11:33:18.416Z,3.90
2018-06-21T11:35:46.640Z,3.80
2018-06-21T11:38:15.547Z,3.22
2018-06-21T11:40:43.687Z,4.28
2018-06-21T11:43:11.890Z,3.50
2018-06-21T11:45:47.312Z,3.68
2018-06-21T11:48:16.199Z,3.30
2018-06-21T11:50:44.224Z,2.93
2018-06-21T11:53:12.436Z,3.40
2018-06-21T11:55:41.119Z,5.50
2018-06-21T11:58:09.358Z,4.20
2018-06-21T12:00:37.576Z,3.10
2018-06-21T12:03:08.663Z,2.87
2018-06-21T12:05:36.954Z,2.10
2018-06-21T12:08:06.112Z,2.90
2018-06-21T12:10:34.316Z,2.50
2018-06-21T12:13:02.516Z,2.00
2018-06-21T12:15:31.021Z,2.27
2018-06-21T12:18:03.396Z,1.87
2018-06-21T12:20:31.668Z,2.23
2018-06-21T12:22:59.940Z,2.50
2018-06-21T12:25:28.127Z,2.20
2018-06-21T12:27:56.323Z,2.23
2018-06-21T12:30:24.549Z,1.80
2018-06-21T12:32:52.722Z,1.90
2018-06-21T12:35:20.947Z,2.20
2018-06-21T12:37:48.915Z,1.93
2018-06-21T12:40:17.104Z,1.70
2018-06-21T12:42:45.055Z,1.82
2018-06-21T12:45:13.276Z,1.30
2018-06-21T12:47:44.804Z,1.97
2018-06-21T12:50:13.106Z,1.95
2018-06-21T12:52:41.280Z,1.83
2018-06-21T12:55:10.159Z,2.05
2018-06-21T12:57:38.483Z,2.30
2018-06-21T13:00:06.874Z,1.42
2018-06-21T13:02:42.700Z,2.08
2018-06-21T13:05:11.616Z,1.65
2018-06-21T13:07:40.772Z,2.13
2018-06-21T13:10:20.389Z,1.90
2018-06-21T13:12:55.091Z,1.90
2018-06-21T13:15:24.178Z,2.40
2018-06-21T13:17:52.402Z,2.55
2018-06-21T13:20:20.701Z,1.20
2018-06-21T13:22:50.004Z,2.65
2018-06-21T13:25:18.253Z,1.80
2018-06-21T13:27:46.540Z,2.55
2018-06-21T13:30:15.009Z,2.42
2018-06-21T13:32:47.127Z,1.98
2018-06-21T13:35:15.491Z,2.40
2018-06-21T13:37:44.388Z,2.30
2018-06-21T13:40:12.869Z,2.50
2018-06-21T13:42:41.140Z,1.80
2018-06-21T13:45:09.406Z,2.40
2018-06-21T13:47:52.191Z,1.83
2018-06-21T13:50:21.230Z,2.52
2018-06-21T13:52:49.459Z,2.47
2018-06-21T13:55:17.995Z,4.00
2018-06-21T13:57:46.476Z,2.85
2018-06-21T14:00:14.791Z,3.50
2018-06-21T14:02:47.172Z,2.77
2018-06-21T14:05:19.073Z,2.87
2018-06-21T14:07:47.601Z,4.08
2018-06-21T14:10:15.519Z,4.43
2018-06-21T14:12:43.815Z,3.90
2018-06-21T14:15:12.755Z,4.17
2018-06-21T14:17:41.071Z,4.73
2018-06-21T14:20:09.143Z,3.72
2018-06-21T14:22:37.513Z,4.03
2018-06-21T14:25:06.844Z,3.43
2018-06-21T14:27:35.172Z,3.83
2018-06-21T14:30:03.458Z,3.27
2018-06-21T14:32:31.700Z,3.62
2018-06-21T14:35:05.170Z,3.30
2018-06-21T14:37:33.419Z,3.47
2018-06-21T14:40:02.348Z,4.14
2018-06-21T14:42:30.851Z,2.85
2018-06-21T14:44:59.097Z,3.63
2018-06-21T14:47:27.385Z,2.83
2018-06-21T14:49:59.855Z,2.62
2018-06-21T14:52:28.197Z,2.57
2018-06-21T14:54:56.752Z,2.40
2018-06-21T14:57:25.189Z,2.40
2018-06-21T14:59:53.544Z,2.67
2018-06-21T15:02:22.484Z,2.90
2018-06-21T15:07:25.895Z,1.83
2018-06-21T15:09:54.277Z,3.17
2018-06-21T15:12:23.628Z,2.90
2018-06-21T15:14:51.898Z,2.10
2018-06-21T15:17:20.492Z,2.07
2018-06-21T15:19:48.686Z,3.10
2018-06-21T15:22:16.997Z,2.97
2018-06-21T15:24:45.296Z,3.00
2018-06-21T15:27:13.701Z,3.00
2018-06-21T15:29:43.788Z,3.87
2018-06-21T15:32:12.164Z,3.50
2018-06-21T15:34:40.666Z,3.03
2018-06-21T15:37:08.860Z,5.08
2018-06-21T15:39:37.776Z,4.53
2018-06-21T15:42:06.328Z,4.30
2018-06-21T15:44:34.914Z,4.37
2018-06-21T15:47:04.118Z,5.50
2018-06-21T15:49:38.135Z,5.44
2018-06-21T15:52:07.679Z,5.33
2018-06-21T15:54:35.899Z,5.10
2018-06-21T15:57:04.124Z,5.83
2018-06-21T15:59:32.296Z,5.60
2018-06-21T16:02:00.532Z,7.62
2018-06-21T16:04:28.796Z,6.03
2018-06-21T16:07:00.421Z,5.90
2018-06-21T16:09:28.680Z,5.85
2018-06-21T16:11:57.012Z,5.80
2018-06-21T16:14:25.227Z,6.07
2018-06-21T16:16:53.659Z,5.97
2018-06-21T16:19:21.891Z,7.03
2018-06-21T16:21:50.324Z,5.00
2018-06-21T16:24:18.596Z,5.57
2018-06-21T16:26:46.883Z,5.73
2018-06-21T16:29:15.103Z,4.90
2018-06-21T16:31:43.403Z,4.03
2018-06-21T16:34:11.615Z,4.78
2018-06-21T16:36:39.873Z,3.93
2018-06-21T16:39:09.366Z,3.90
2018-06-21T16:41:39.332Z,3.52
2018-06-21T16:44:08.800Z,3.05
2018-06-21T16:46:37.124Z,2.13
2018-06-21T16:49:05.384Z,3.10
2018-06-21T16:51:33.592Z,2.40
2018-06-21T16:54:01.845Z,2.75
2018-06-21T16:56:31.047Z,3.10
2018-06-21T16:58:59.428Z,2.33
2018-06-21T17:01:27.825Z,2.30
2018-06-21T17:03:56.132Z,2.47
2018-06-21T17:06:27.852Z,2.53
2018-06-21T17:08:59.450Z,2.50
2018-06-21T17:11:27.687Z,2.33
2018-06-21T17:13:55.899Z,1.90
2018-06-21T17:16:24.161Z,1.60
2018-06-21T17:18:52.604Z,2.13
2018-06-21T17:21:20.860Z,2.27
2018-06-21T17:23:49.112Z,1.73
2018-06-21T17:26:18.146Z,2.37
2018-06-21T17:28:46.332Z,2.13
2018-06-21T17:31:14.659Z,2.25
2018-06-21T17:33:42.884Z,2.37
2018-06-21T17:36:14.700Z,1.75
2018-06-21T17:38:43.320Z,1.73
2018-06-21T17:41:11.573Z,1.70
2018-06-21T17:43:39.840Z,1.10
2018-06-21T17:46:08.291Z,1.65
2018-06-21T17:48:36.265Z,1.60
2018-06-21T17:51:04.501Z,2.30
2018-06-21T17:53:32.717Z,2.10
2018-06-21T17:56:01.007Z,1.73
2018-06-21T17:58:29.233Z,2.20
2018-06-21T18:00:57.323Z,1.50
2018-06-21T18:03:25.359Z,1.50
2018-06-21T18:05:53.640Z,1.50
2018-06-21T18:08:22.104Z,1.45
2018-06-21T18:10:50.411Z,1.30
2018-06-21T18:13:18.623Z,2.50
2018-06-21T18:15:47.000Z,1.40
2018-06-21T18:18:15.955Z,1.90
2018-06-21T18:20:45.120Z,1.43
2018-06-21T18:23:18.632Z,1.10
2018-06-21T18:25:51.483Z,1.33
2018-06-21T18:28:20.022Z,1.67
2018-06-21T18:30:48.509Z,1.47
2018-06-21T18:33:16.730Z,1.62
2018-06-21T18:35:44.811Z,1.67
2018-06-21T18:38:13.059Z,1.20
2018-06-21T18:40:41.700Z,1.57
2018-06-21T18:43:10.072Z,1.20
2018-06-21T18:45:38.889Z,1.20
2018-06-21T18:48:07.811Z,1.60
2018-06-21T18:50:36.132Z,1.37
2018-06-21T18:53:04.464Z,1.17
2018-06-21T18:55:32.652Z,1.53
2018-06-21T18:58:01.325Z,1.30
2018-06-21T19:00:29.667Z,1.42
2018-06-21T19:02:57.908Z,1.00
2018-06-21T19:05:27.034Z,1.17
2018-06-21T19:08:00.641Z,1.70
2018-06-21T19:10:34.226Z,0.90
2018-06-21T19:13:02.478Z,2.60
2018-06-21T19:15:30.776Z,1.50
2018-06-21T19:17:58.996Z,1.67
2018-06-21T19:20:27.276Z,1.50
2018-06-21T19:22:58.390Z,1.40
2018-06-21T19:25:28.109Z,1.90
2018-06-21T19:27:56.393Z,1.17
2018-06-21T19:30:24.692Z,1.10
2018-06-21T19:32:54.010Z,1.60
2018-06-21T19:35:23.407Z,1.50
2018-06-21T19:37:51.857Z,1.40
2018-06-21T19:40:21.881Z,1.17
2018-06-21T19:42:50.906Z,1.03
2018-06-21T19:45:19.520Z,1.20
2018-06-21T19:47:48.124Z,1.73
2018-06-21T19:50:16.495Z,1.40
2018-06-21T19:52:45.563Z,1.65
2018-06-21T19:55:18.630Z,1.30
2018-06-21T19:57:47.955Z,1.77
2018-06-21T20:00:16.357Z,1.40
2018-06-21T20:02:50.908Z,1.30
2018-06-21T20:05:19.215Z,1.10
2018-06-21T20:07:48.132Z,1.63
2018-06-21T20:10:17.656Z,1.12
2018-06-21T20:12:46.084Z,1.90
2018-06-21T20:15:15.003Z,1.82
2018-06-21T20:17:43.904Z,1.42
2018-06-21T20:20:17.594Z,1.30
2018-06-21T20:22:46.738Z,1.40
2018-06-21T20:25:15.261Z,1.40
2018-06-21T20:27:43.463Z,1.30
2018-06-21T20:30:14.620Z,1.30
2018-06-21T20:32:44.485Z,1.20
2018-06-21T20:35:12.768Z,0.93
2018-06-21T20:37:41.880Z,1.02
2018-06-21T20:40:14.065Z,1.65
2018-06-21T20:42:42.488Z,1.47
2018-06-21T20:45:11.341Z,1.40
2018-06-21T20:47:39.620Z,1.17
2018-06-21T20:50:11.667Z,1.30
2018-06-21T20:52:39.652Z,1.90
2018-06-21T20:55:11.325Z,1.53
2018-06-21T20:57:40.680Z,1.47
2018-06-21T21:00:08.957Z,1.65
2018-06-21T21:02:38.022Z,1.13
2018-06-21T21:05:10.512Z,1.05
2018-06-21T21:07:39.932Z,1.40
2018-06-21T21:10:10.924Z,1.20
2018-06-21T21:12:39.713Z,1.40
2018-06-21T21:15:08.860Z,2.00
2018-06-21T21:17:37.235Z,1.50
2018-06-21T21:20:06.212Z,1.37
2018-06-21T21:22:35.382Z,1.57
2018-06-21T21:25:07.385Z,1.40
2018-06-21T21:27:36.283Z,1.83
2018-06-21T21:30:07.168Z,1.53
2018-06-21T21:32:35.539Z,0.73
2018-06-21T21:35:03.880Z,1.23
2018-06-21T21:37:32.169Z,1.43
2018-06-21T21:40:05.724Z,1.27
2018-06-21T21:42:35.275Z,1.30
2018-06-21T21:45:04.072Z,1.10
2018-06-21T21:47:32.305Z,1.10
2018-06-21T21:50:00.807Z,1.70
2018-06-21T21:52:30.193Z,1.17
2018-06-21T21:54:58.542Z,1.40
2018-06-21T21:57:31.087Z,1.20
2018-06-21T21:59:59.612Z,0.90
2018-06-21T22:02:27.884Z,1.33
2018-06-21T22:04:56.200Z,1.15
2018-06-21T22:07:24.528Z,1.60
2018-06-21T22:09:52.824Z,1.10
2018-06-21T22:12:22.204Z,1.25
2018-06-21T22:14:51.046Z,1.57
2018-06-21T22:17:20.191Z,2.93
2018-06-21T22:19:48.545Z,1.27
2018-06-21T22:22:16.744Z,2.40
2018-06-21T22:24:45.000Z,2.12
2018-06-21T22:27:13.216Z,1.77
2018-06-21T22:29:41.194Z,1.45
2018-06-21T22:32:10.212Z,1.30
2018-06-21T22:34:38.432Z,1.70
2018-06-21T22:37:06.675Z,1.37
2018-06-21T22:39:35.415Z,1.00
2018-06-21T22:42:03.651Z,0.97
2018-06-21T22:44:32.867Z,1.05
2018-06-21T22:47:01.195Z,1.83
2018-06-21T22:49:30.347Z,1.02
2018-06-21T22:51:58.584Z,2.07
2018-06-21T22:54:26.846Z,1.00
2018-06-21T22:56:55.344Z,1.45
2018-06-21T22:59:23.559Z,1.00
2018-06-21T23:01:52.101Z,0.93
2018-06-21T23:04:20.333Z,1.00
2018-06-21T23:06:48.596Z,1.30
2018-06-21T23:09:16.863Z,1.10
2018-06-21T23:11:53.769Z,1.30
2018-06-21T23:14:21.980Z,1.63
2018-06-21T23:16:52.448Z,1.37
2018-06-21T23:19:27.579Z,1.40
2018-06-21T23:21:55.817Z,1.20
2018-06-21T23:24:24.823Z,1.10
2018-06-21T23:26:57.595Z,1.50
2018-06-21T23:29:25.908Z,1.30
2018-06-21T23:31:54.105Z,1.13
2018-06-21T23:34:22.839Z,1.30
2018-06-21T23:36:51.365Z,2.75
2018-06-21T23:39:19.856Z,1.53
2018-06-21T23:41:48.075Z,1.90
2018-06-21T23:44:16.308Z,1.30
2018-06-21T23:46:44.609Z,1.00
2018-06-21T23:49:13.447Z,1.10
2018-06-21T23:51:41.998Z,1.17
2018-06-21T23:54:11.531Z,1.70
2018-06-21T23:56:40.404Z,1.13
2018-06-21T23:59:08.909Z,1.67
